createdAt,value
2023-03-26T00:02:00.728Z,99233.91
2023-03-26T00:06:17.714Z,99240.78
2023-03-26T00:10:33.906Z,99255.00
2023-03-26T00:14:51.943Z,99258.50
2023-03-26T00:19:08.329Z,99249.56
2023-03-26T00:23:24.861Z,99257.16
2023-03-26T00:27:41.944Z,99257.75
2023-03-26T00:31:58.212Z,99264.63
2023-03-26T00:36:17.640Z,99252.22
2023-03-26T00:40:36.942Z,99255.00
2023-03-26T00:44:58.002Z,99255.00
2023-03-26T00:49:15.049Z,99252.50
2023-03-26T00:53:32.237Z,99243.47
2023-03-26T00:57:48.564Z,99249.50
2023-03-26T01:02:05.030Z,99241.13
2023-03-26T01:06:28.379Z,99241.09
2023-03-26T01:10:50.991Z,99249.62
2023-03-26T01:15:08.543Z,99239.75
2023-03-26T01:20:07.308Z,99235.16
2023-03-26T01:24:23.537Z,99228.94
2023-03-26T01:28:41.560Z,99226.75
2023-03-26T01:33:14.246Z,99221.88
2023-03-26T01:38:24.259Z,99229.16
2023-03-26T01:42:54.391Z,99206.13
2023-03-26T01:47:12.583Z,99194.16
2023-03-26T01:51:34.740Z,99206.63
2023-03-26T01:55:56.234Z,99208.81
2023-03-26T02:00:25.909Z,99211.25
2023-03-26T02:04:53.560Z,99220.69
2023-03-26T02:09:15.036Z,99223.44
2023-03-26T02:13:32.159Z,99224.28
2023-03-26T02:17:53.173Z,99217.53
2023-03-26T02:22:15.907Z,99218.59
2023-03-26T02:26:34.304Z,99209.34
2023-03-26T02:30:50.491Z,99211.53
2023-03-26T02:35:07.235Z,99208.78
2023-03-26T02:39:24.021Z,99208.75
2023-03-26T02:43:40.288Z,99199.16
2023-03-26T02:47:57.832Z,99198.94
2023-03-26T02:52:17.280Z,99192.41
2023-03-26T02:56:33.614Z,99185.53
2023-03-26T03:00:50.962Z,99194.81
2023-03-26T03:05:08.567Z,99198.88
2023-03-26T03:09:25.297Z,99204.03
2023-03-26T03:13:42.191Z,99203.91
2023-03-26T03:17:58.507Z,99201.16
2023-03-26T03:22:14.844Z,99202.00
2023-03-26T03:26:31.183Z,99199.00
2023-03-26T03:30:47.608Z,99194.94
2023-03-26T03:35:04.189Z,99196.81
2023-03-26T03:39:20.383Z,99192.50
2023-03-26T03:43:36.809Z,99203.91
2023-03-26T03:47:53.575Z,99209.37
2023-03-26T03:52:09.985Z,99206.13
2023-03-26T03:56:26.310Z,99226.22
2023-03-26T04:00:45.110Z,99227.88
2023-03-26T04:05:02.576Z,99229.78
2023-03-26T04:09:19.006Z,99228.12
2023-03-26T04:13:35.218Z,99226.22
2023-03-26T04:17:52.278Z,99217.00
2023-03-26T04:22:09.656Z,99218.88
2023-03-26T04:26:26.104Z,99213.97
2023-03-26T04:30:42.563Z,99209.91
2023-03-26T04:35:00.572Z,99216.97
2023-03-26T04:39:16.887Z,99224.56
2023-03-26T04:43:35.746Z,99223.44
2023-03-26T04:47:52.098Z,99211.47
2023-03-26T04:52:10.417Z,99215.22
2023-03-26T04:56:44.508Z,99213.12
2023-03-26T05:01:10.151Z,99212.22
2023-03-26T05:05:28.289Z,99209.28
2023-03-26T05:09:44.651Z,99211.41
2023-03-26T05:14:00.887Z,99209.75
2023-03-26T05:18:17.361Z,99207.06
2023-03-26T05:22:34.583Z,99207.56
2023-03-26T05:26:52.699Z,99207.81
2023-03-26T05:31:10.314Z,99206.88
2023-03-26T05:35:26.641Z,99198.41
2023-03-26T05:39:44.208Z,99205.66
2023-03-26T05:44:01.581Z,99212.19
2023-03-26T05:48:18.744Z,99210.31
2023-03-26T05:52:35.580Z,99209.97
2023-03-26T05:56:53.010Z,99206.53
2023-03-26T06:01:17.619Z,99201.19
2023-03-26T06:05:38.576Z,99197.84
2023-03-26T06:09:55.730Z,99196.00
2023-03-26T06:14:12.385Z,99201.69
2023-03-26T06:18:28.624Z,99207.87
2023-03-26T06:22:44.870Z,99208.94
2023-03-26T06:27:01.301Z,99203.44
2023-03-26T06:31:19.523Z,99210.19
2023-03-26T06:35:35.800Z,99207.44
2023-03-26T06:39:52.041Z,99203.91
2023-03-26T06:44:08.358Z,99195.97
2023-03-26T06:48:24.521Z,99214.47
2023-03-26T06:52:41.173Z,99210.19
2023-03-26T06:56:57.845Z,99204.44
2023-03-26T07:01:14.077Z,99199.88
2023-03-26T07:05:30.514Z,99198.66
2023-03-26T07:09:48.248Z,99193.84
2023-03-26T07:14:04.536Z,99193.84
2023-03-26T07:18:20.799Z,99204.81
2023-03-26T07:22:37.592Z,99204.28
2023-03-26T07:27:16.817Z,99192.50
2023-03-26T07:31:56.506Z,99195.41
2023-03-26T07:36:24.645Z,99181.44
2023-03-26T07:40:49.426Z,99198.91
2023-03-26T07:45:34.287Z,99196.28
2023-03-26T07:49:50.946Z,99202.75
2023-03-26T07:54:09.206Z,99212.91
2023-03-26T07:58:46.876Z,99197.94
2023-03-26T08:03:22.153Z,99209.37
2023-03-26T08:08:03.132Z,99209.59
2023-03-26T08:12:25.167Z,99202.75
2023-03-26T08:16:51.576Z,99201.91
2023-03-26T08:21:17.516Z,99200.41
2023-03-26T08:25:37.425Z,99202.38
2023-03-26T08:30:17.601Z,99188.88
2023-03-26T08:34:33.935Z,99186.31
2023-03-26T08:38:51.157Z,99193.53
2023-03-26T08:43:33.127Z,99185.09
2023-03-26T08:48:11.336Z,99176.00
2023-03-26T08:52:44.922Z,99189.12
2023-03-26T08:57:01.163Z,99177.87
2023-03-26T09:01:35.131Z,99172.72
2023-03-26T09:06:25.211Z,99170.28
2023-03-26T09:11:06.627Z,99165.56
2023-03-26T09:15:47.212Z,99182.19
2023-03-26T09:20:41.684Z,99167.06
2023-03-26T09:25:00.859Z,99174.69
2023-03-26T09:29:48.298Z,99162.81
2023-03-26T09:34:07.604Z,99165.78
2023-03-26T09:38:43.958Z,99161.13
2023-03-26T09:43:27.466Z,99163.84
2023-03-26T09:47:52.722Z,99176.88
2023-03-26T09:52:40.554Z,99160.06
2023-03-26T09:57:23.917Z,99158.09
2023-03-26T10:02:12.303Z,99152.19
2023-03-26T10:07:00.588Z,99146.22
2023-03-26T10:11:35.108Z,99130.00
2023-03-26T10:16:31.502Z,99116.31
2023-03-26T10:21:14.826Z,99099.28
2023-03-26T10:25:39.980Z,99104.16
2023-03-26T10:30:10.171Z,99091.56
2023-03-26T10:34:48.045Z,99077.47
2023-03-26T10:39:36.309Z,99079.06
2023-03-26T10:44:24.245Z,99052.25
2023-03-26T10:48:52.436Z,99042.00
2023-03-26T10:53:34.596Z,99045.66
2023-03-26T10:57:54.506Z,99042.38
2023-03-26T11:02:30.297Z,99040.28
2023-03-26T11:08:00.869Z,99029.12
2023-03-26T11:12:28.366Z,99013.13
2023-03-26T11:17:07.839Z,99002.31
2023-03-26T11:21:33.651Z,98993.75
2023-03-26T11:26:08.069Z,98977.47
2023-03-26T11:30:46.344Z,98971.78
2023-03-26T11:35:09.484Z,98967.38
2023-03-26T11:39:33.374Z,98951.13
2023-03-26T11:44:12.058Z,98937.28
2023-03-26T11:48:58.352Z,98938.44
2023-03-26T11:53:19.753Z,98928.50
2023-03-26T11:57:36.987Z,98918.66
2023-03-26T12:02:16.599Z,98909.06
2023-03-26T12:06:33.185Z,98895.28
2023-03-26T12:11:01.795Z,98877.16
2023-03-26T12:15:20.291Z,98875.03
2023-03-26T12:19:40.401Z,98856.06
2023-03-26T12:23:57.086Z,98845.38
2023-03-26T12:28:18.314Z,98826.87
2023-03-26T12:32:46.264Z,98820.94
2023-03-26T12:37:04.923Z,98805.56
2023-03-26T12:44:44.404Z,98820.22
2023-03-26T12:47:59.835Z,98810.38
2023-03-26T12:51:16.638Z,98800.94
2023-03-26T12:56:04.086Z,98806.06
2023-03-26T13:00:20.442Z,98811.66
2023-03-26T13:04:58.446Z,98801.47
2023-03-26T13:10:13.807Z,98796.53
2023-03-26T13:14:39.195Z,98786.38
2023-03-26T13:18:59.624Z,98772.63
2023-03-26T13:23:26.921Z,98769.84
2023-03-26T13:27:50.587Z,98775.72
2023-03-26T13:32:30.725Z,98763.91
2023-03-26T13:37:18.489Z,98766.59
2023-03-26T13:41:49.805Z,98745.28
2023-03-26T13:46:20.971Z,98742.63
2023-03-26T13:50:43.563Z,98727.94
2023-03-26T13:55:25.978Z,98722.31
2023-03-26T13:59:45.570Z,98703.84
2023-03-26T14:04:34.484Z,98709.22
2023-03-26T14:09:05.064Z,98705.22
2023-03-26T14:13:27.254Z,98715.72
2023-03-26T14:17:59.176Z,98720.69
2023-03-26T14:22:44.926Z,98691.19
2023-03-26T14:27:36.627Z,98676.28
2023-03-26T14:32:24.155Z,98673.13
2023-03-26T14:36:43.924Z,98664.94
2023-03-26T14:41:27.914Z,98659.69
2023-03-26T14:45:49.865Z,98652.63
2023-03-26T14:50:36.192Z,98638.56
2023-03-26T14:54:56.317Z,98640.06
2023-03-26T14:59:34.095Z,98645.66
2023-03-26T15:04:02.092Z,98621.19
2023-03-26T15:08:37.827Z,98633.69
2023-03-26T15:13:12.734Z,98613.97
2023-03-26T15:17:53.346Z,98614.66
2023-03-26T15:22:48.121Z,98629.50
2023-03-26T15:27:28.792Z,98590.28
2023-03-26T15:32:13.540Z,98580.28
2023-03-26T15:36:47.795Z,98583.66
2023-03-26T15:41:09.936Z,98577.19
2023-03-26T15:45:35.023Z,98573.59
2023-03-26T15:50:15.940Z,98563.72
2023-03-26T15:54:57.652Z,98568.28
2023-03-26T15:59:33.442Z,98548.59
2023-03-26T16:04:14.600Z,98548.03
2023-03-26T16:09:00.762Z,98535.31
2023-03-26T16:13:32.212Z,98528.66
2023-03-26T16:18:12.003Z,98517.25
2023-03-26T16:22:59.882Z,98517.09
2023-03-26T16:27:16.066Z,98519.50
2023-03-26T16:31:38.695Z,98518.56
2023-03-26T16:36:14.381Z,98506.91
2023-03-26T16:40:50.921Z,98504.50
2023-03-26T16:45:18.439Z,98506.09
2023-03-26T16:50:07.806Z,98500.50
2023-03-26T16:54:55.529Z,98509.66
2023-03-26T17:00:08.636Z,98503.91
2023-03-26T17:04:30.663Z,98493.16
2023-03-26T17:08:57.568Z,98496.97
2023-03-26T17:13:26.216Z,98488.59
2023-03-26T17:18:01.579Z,98489.94
2023-03-26T17:22:20.568Z,98481.69
2023-03-26T17:26:39.850Z,98483.97
2023-03-26T17:31:16.024Z,98481.00
2023-03-26T17:35:46.619Z,98483.66
2023-03-26T17:40:09.669Z,98480.53
2023-03-26T17:44:41.586Z,98479.66
2023-03-26T17:49:04.953Z,98489.81
2023-03-26T17:53:23.602Z,98498.87
2023-03-26T17:57:46.572Z,98501.19
2023-03-26T18:02:05.674Z,98507.34
2023-03-26T18:06:54.216Z,98506.91
2023-03-26T18:11:31.834Z,98503.47
2023-03-26T18:15:57.419Z,98501.50
2023-03-26T18:20:27.157Z,98487.19
2023-03-26T18:24:44.835Z,98483.28
2023-03-26T18:29:28.948Z,98473.44
2023-03-26T18:33:51.822Z,98460.59
2023-03-26T18:38:11.556Z,98452.69
2023-03-26T18:42:29.513Z,98443.75
2023-03-26T18:46:46.028Z,98449.13
2023-03-26T18:51:07.687Z,98441.56
2023-03-26T18:55:26.388Z,98435.38
2023-03-26T18:59:45.571Z,98423.94
2023-03-26T19:04:05.571Z,98413.16
2023-03-26T19:08:23.945Z,98400.66
2023-03-26T19:12:40.101Z,98390.72
2023-03-26T19:17:01.223Z,98379.69
2023-03-26T19:21:19.237Z,98384.28
2023-03-26T19:25:50.189Z,98373.03
2023-03-26T19:30:07.688Z,98371.22
2023-03-26T19:34:35.699Z,98371.19
2023-03-26T19:39:01.071Z,98367.22
2023-03-26T19:43:17.590Z,98355.31
2023-03-26T19:47:52.151Z,98348.88
2023-03-26T19:52:15.507Z,98347.37
2023-03-26T19:56:32.044Z,98339.00
2023-03-26T20:00:48.325Z,98328.34
2023-03-26T20:05:04.791Z,98324.87
2023-03-26T20:09:23.620Z,98318.69
2023-03-26T20:13:39.827Z,98303.81
2023-03-26T20:17:56.076Z,98314.88
2023-03-26T20:22:17.201Z,98305.94
2023-03-26T20:26:33.356Z,98293.44
2023-03-26T20:30:51.238Z,98296.88
2023-03-26T20:35:16.748Z,98283.03
2023-03-26T20:39:32.973Z,98283.25
2023-03-26T20:43:51.037Z,98344.59
2023-03-26T20:48:10.532Z,98350.31
2023-03-26T20:52:28.536Z,98361.78
2023-03-26T20:56:45.874Z,98373.19
2023-03-26T21:01:03.169Z,98364.41
2023-03-26T21:05:24.649Z,98361.53
2023-03-26T21:09:41.324Z,98347.37
2023-03-26T21:14:06.948Z,98354.31
2023-03-26T21:18:23.523Z,98351.09
2023-03-26T21:22:50.837Z,98351.06
2023-03-26T21:27:12.799Z,98345.75
2023-03-26T21:31:34.597Z,98336.09
2023-03-26T21:35:52.016Z,98308.25
2023-03-26T21:40:14.994Z,98286.53
2023-03-26T21:44:31.724Z,98277.06
2023-03-26T21:48:48.348Z,98286.22
2023-03-26T21:53:04.750Z,98276.59
2023-03-26T21:57:59.834Z,98272.22
2023-03-26T22:02:23.261Z,98263.37
2023-03-26T22:06:46.329Z,98260.31
2023-03-26T22:11:02.908Z,98260.31
2023-03-26T22:15:19.394Z,98259.03
2023-03-26T22:19:36.141Z,98262.44
2023-03-26T22:23:53.209Z,98262.09
2023-03-26T22:28:09.711Z,98258.69
2023-03-26T22:32:26.307Z,98249.25
2023-03-26T22:36:49.089Z,98242.31
2023-03-26T22:41:05.672Z,98233.63
2023-03-26T22:45:23.057Z,98220.62
2023-03-26T22:49:40.200Z,98209.34
2023-03-26T22:53:56.649Z,98211.44
2023-03-26T22:58:13.002Z,98200.34
2023-03-26T23:02:29.215Z,98198.38
2023-03-26T23:06:45.461Z,98195.66
2023-03-26T23:11:02.289Z,98176.19
2023-03-26T23:15:20.753Z,98177.94
2023-03-26T23:19:37.343Z,98166.00
2023-03-26T23:23:53.603Z,98160.00
2023-03-26T23:28:10.151Z,98156.31
2023-03-26T23:32:26.406Z,98163.78
2023-03-26T23:36:42.685Z,98145.62
2023-03-26T23:40:59.785Z,98157.50
2023-03-26T23:45:16.685Z,98147.72
2023-03-26T23:49:32.852Z,98140.91
2023-03-26T23:53:49.603Z,98131.16
2023-03-26T23:58:06.952Z,98123.28
